createdAt,value
2016-09-07T00:00:13.257Z,23.15
2016-09-07T00:01:12.891Z,23.17
2016-09-07T00:02:12.829Z,23.13
2016-09-07T00:03:13.079Z,23.15
2016-09-07T00:04:12.707Z,23.13
2016-09-07T00:05:12.655Z,23.13
2016-09-07T00:06:12.593Z,23.1
2016-09-07T00:07:12.841Z,23.12
2016-09-07T00:08:12.484Z,23.13
2016-09-07T00:09:12.714Z,23.12
2016-09-07T00:10:12.668Z,23.2
2016-09-07T00:11:12.602Z,23.12
2016-09-07T00:12:12.242Z,23.12
2016-09-07T00:13:12.171Z,23.13
2016-09-07T00:14:12.115Z,23.15
2016-09-07T00:15:12.064Z,23.1
2016-09-07T00:16:11.996Z,23.12
2016-09-07T00:17:11.934Z,23.12
2016-09-07T00:18:11.902Z,23.1
2016-09-07T00:19:11.815Z,23.06
2016-09-07T00:20:12.066Z,23.09
2016-09-07T00:21:11.694Z,23.1
2016-09-07T00:22:11.636Z,23.1
2016-09-07T00:23:11.884Z,23.13
2016-09-07T00:24:12.127Z,23.12
2016-09-07T00:25:11.760Z,23.12
2016-09-07T00:26:11.403Z,23.1
2016-09-07T00:27:11.335Z,23.12
2016-09-07T00:28:11.589Z,23.2
2016-09-07T00:29:11.601Z,23.13
2016-09-07T00:30:11.160Z,23.13
2016-09-07T00:31:11.100Z,23.06
2016-09-07T00:32:11.039Z,23.12
2016-09-07T00:33:10.980Z,23.12
2016-09-07T00:34:10.919Z,23.08
2016-09-07T00:35:10.867Z,23.09
2016-09-07T00:36:10.800Z,23.12
2016-09-07T00:37:10.741Z,23.1
2016-09-07T00:38:10.746Z,23.08
2016-09-07T00:39:10.927Z,23.03
2016-09-07T00:40:10.871Z,23.06
2016-09-07T00:41:10.603Z,23.13
2016-09-07T00:42:10.442Z,23.09
2016-09-07T00:43:10.717Z,23.1
2016-09-07T00:44:10.320Z,23.1
2016-09-07T00:45:10.264Z,23.03
2016-09-07T00:46:10.403Z,23.08
2016-09-07T00:47:10.143Z,23.1
2016-09-07T00:48:10.389Z,23.12
2016-09-07T00:49:10.027Z,23.08
2016-09-07T00:50:09.967Z,23.09
2016-09-07T00:51:09.908Z,23.06
2016-09-07T00:52:09.850Z,23.1
2016-09-07T00:53:09.869Z,23.08
2016-09-07T00:54:09.729Z,23.06
2016-09-07T00:55:09.668Z,23.05
2016-09-07T00:56:09.912Z,23.05
2016-09-07T00:57:09.549Z,23.03
2016-09-07T00:58:09.795Z,23.09
2016-09-07T00:59:09.428Z,23.08
2016-09-07T01:00:09.393Z,23.08
2016-09-07T01:01:09.314Z,23.1
2016-09-07T01:02:09.265Z,23.09
2016-09-07T01:03:09.193Z,23.08
2016-09-07T01:04:09.131Z,23.09
2016-09-07T01:05:09.078Z,23.09
2016-09-07T01:06:09.009Z,23.1
2016-09-07T01:07:08.956Z,23.1
2016-09-07T01:08:08.903Z,23.09
2016-09-07T01:09:08.840Z,23.08
2016-09-07T01:10:08.768Z,23.09
2016-09-07T01:11:08.718Z,23.06
2016-09-07T01:12:08.649Z,23.02
2016-09-07T01:13:08.616Z,23.05
2016-09-07T01:14:08.534Z,23.05
2016-09-07T01:15:08.479Z,23.03
2016-09-07T01:16:08.418Z,23.03
2016-09-07T01:17:08.358Z,23.06
2016-09-07T01:18:08.294Z,23.05
2016-09-07T01:19:08.232Z,23.02
2016-09-07T01:20:08.185Z,23.03
2016-09-07T01:21:08.118Z,23.02
2016-09-07T01:22:08.061Z,23.06
2016-09-07T01:23:08.308Z,23.03
2016-09-07T01:24:07.938Z,23.03
2016-09-07T01:25:07.894Z,23.05
2016-09-07T01:26:07.819Z,23.06
2016-09-07T01:27:07.761Z,23.02
2016-09-07T01:28:07.704Z,23.06
2016-09-07T01:29:07.637Z,23.03
2016-09-07T01:30:07.583Z,23.03
2016-09-07T01:31:07.522Z,23.05
2016-09-07T01:32:07.765Z,23.03
2016-09-07T01:33:07.425Z,23.09
2016-09-07T01:34:07.658Z,23.06
2016-09-07T01:35:07.283Z,23.03
2016-09-07T01:36:07.221Z,23.02
2016-09-07T01:37:07.156Z,23.02
2016-09-07T01:38:07.113Z,23.03
2016-09-07T01:39:07.039Z,23.05
2016-09-07T01:40:06.985Z,23.06
2016-09-07T01:41:06.935Z,23.03
2016-09-07T01:42:06.860Z,23.02
2016-09-07T01:43:06.805Z,23.02
2016-09-07T01:44:06.744Z,23.08
2016-09-07T01:45:06.729Z,23.02
2016-09-07T01:46:06.621Z,23.02
2016-09-07T01:47:06.568Z,23.06
2016-09-07T01:48:06.505Z,23.05
2016-09-07T01:49:06.454Z,23.06
2016-09-07T01:50:06.385Z,22.98
2016-09-07T01:51:06.628Z,23.02
2016-09-07T01:52:06.267Z,23.02
2016-09-07T01:53:06.518Z,23.03
2016-09-07T01:54:06.151Z,23
2016-09-07T01:55:06.098Z,23
2016-09-07T01:56:06.025Z,23.03
2016-09-07T01:57:05.975Z,23.03
2016-09-07T01:58:05.910Z,23.02
2016-09-07T01:59:05.846Z,22.98
2016-09-07T02:00:05.795Z,23.03
2016-09-07T02:01:05.731Z,23.02
2016-09-07T02:02:05.667Z,23.02
2016-09-07T02:03:05.630Z,23.03
2016-09-07T02:04:05.548Z,23.02
2016-09-07T02:05:05.489Z,23.03
2016-09-07T02:06:05.429Z,23.05
2016-09-07T02:07:05.376Z,23.02
2016-09-07T02:08:05.325Z,22.99
2016-09-07T02:09:05.253Z,23.02
2016-09-07T02:10:05.191Z,23.05
2016-09-07T02:11:05.131Z,23
2016-09-07T02:12:05.069Z,23
2016-09-07T02:13:13.581Z,23.02
2016-09-07T02:14:04.956Z,22.99
2016-09-07T02:15:04.892Z,23
2016-09-07T02:16:05.139Z,23.05
2016-09-07T02:17:04.770Z,23.02
2016-09-07T02:18:04.714Z,23.03
2016-09-07T02:19:04.711Z,23.03
2016-09-07T02:20:04.593Z,23.02
2016-09-07T02:21:04.536Z,23.02
2016-09-07T02:22:04.476Z,23
2016-09-07T02:23:04.418Z,23.03
2016-09-07T02:24:04.355Z,23.02
2016-09-07T02:25:04.294Z,23.05
2016-09-07T02:26:04.235Z,22.98
2016-09-07T02:27:04.483Z,23.08
2016-09-07T02:28:04.119Z,23.02
2016-09-07T02:29:04.061Z,22.98
2016-09-07T02:30:03.997Z,23.03
2016-09-07T02:31:04.308Z,23.05
2016-09-07T02:32:03.878Z,22.98
2016-09-07T02:33:03.815Z,23.03
2016-09-07T02:34:04.062Z,23
2016-09-07T02:35:03.701Z,22.98
2016-09-07T02:36:03.657Z,22.93
2016-09-07T02:37:03.587Z,22.96
2016-09-07T02:38:03.518Z,23.03
2016-09-07T02:39:03.479Z,22.99
2016-09-07T02:40:03.728Z,22.94
2016-09-07T02:41:03.341Z,22.94
2016-09-07T02:42:03.587Z,22.93
2016-09-07T02:43:03.221Z,23
2016-09-07T02:44:03.467Z,23
2016-09-07T02:45:03.102Z,22.93
2016-09-07T02:46:03.041Z,22.87
2016-09-07T02:47:02.991Z,22.96
2016-09-07T02:48:02.921Z,22.9
2016-09-07T02:49:02.862Z,22.9
2016-09-07T02:50:02.802Z,22.94
2016-09-07T02:51:02.742Z,22.88
2016-09-07T02:52:02.686Z,22.98
2016-09-07T02:53:02.645Z,22.94
2016-09-07T02:54:02.562Z,22.88
2016-09-07T02:55:02.560Z,23
2016-09-07T02:56:02.441Z,22.91
2016-09-07T02:57:02.684Z,22.91
2016-09-07T02:58:02.327Z,22.85
2016-09-07T02:59:02.279Z,22.9
2016-09-07T03:00:02.201Z,22.98
2016-09-07T03:01:02.144Z,22.91
2016-09-07T03:02:02.089Z,22.94
2016-09-07T03:03:02.030Z,22.98
2016-09-07T03:04:01.989Z,23
2016-09-07T03:05:01.904Z,22.94
2016-09-07T03:06:01.848Z,22.98
2016-09-07T03:07:01.785Z,22.85
2016-09-07T03:08:01.724Z,22.91
2016-09-07T03:09:01.677Z,22.91
2016-09-07T03:10:01.605Z,22.84
2016-09-07T03:11:01.856Z,22.88
2016-09-07T03:12:01.487Z,22.94
2016-09-07T03:13:01.425Z,22.93
2016-09-07T03:14:01.363Z,22.93
2016-09-07T03:15:01.304Z,22.87
2016-09-07T03:16:01.548Z,22.87
2016-09-07T03:17:01.184Z,22.99
2016-09-07T03:18:01.128Z,22.91
2016-09-07T03:19:01.068Z,22.81
2016-09-07T03:20:01.013Z,22.94
2016-09-07T03:21:00.944Z,22.91
2016-09-07T03:22:00.889Z,22.91
2016-09-07T03:23:00.833Z,23
2016-09-07T03:24:00.768Z,22.93
2016-09-07T03:25:00.712Z,22.94
2016-09-07T03:26:00.654Z,22.8
2016-09-07T03:27:00.605Z,22.91
2016-09-07T03:28:00.536Z,22.91
2016-09-07T03:29:00.468Z,22.93
2016-09-07T03:30:00.406Z,22.9
2016-09-07T03:31:00.358Z,22.9
2016-09-07T03:32:00.293Z,22.91
2016-09-07T03:33:00.231Z,22.78
2016-09-07T03:34:00.170Z,22.78
2016-09-07T03:35:00.118Z,22.9
2016-09-07T03:36:00.052Z,22.88
2016-09-07T03:37:00.293Z,22.84
2016-09-07T03:37:59.930Z,22.84
2016-09-07T03:38:59.872Z,22.9
2016-09-07T03:39:59.812Z,22.83
2016-09-07T03:40:59.755Z,22.91
2016-09-07T03:41:59.690Z,22.8
2016-09-07T03:42:59.631Z,22.9
2016-09-07T03:43:59.572Z,22.81
2016-09-07T03:44:59.622Z,22.81
2016-09-07T03:45:59.455Z,22.9
2016-09-07T03:46:59.393Z,22.9
2016-09-07T03:47:59.327Z,22.81
2016-09-07T03:48:59.287Z,22.83
2016-09-07T03:49:59.208Z,22.83
2016-09-07T03:50:59.159Z,22.81
2016-09-07T03:51:59.092Z,22.83
2016-09-07T03:52:59.034Z,22.84
2016-09-07T03:53:58.975Z,22.83
2016-09-07T03:54:58.934Z,22.87
2016-09-07T03:55:58.855Z,22.83
2016-09-07T03:56:58.799Z,22.8
2016-09-07T03:57:58.734Z,22.83
2016-09-07T03:58:58.676Z,22.84
2016-09-07T03:59:58.620Z,22.8
2016-09-07T04:00:58.556Z,22.85
2016-09-07T04:01:58.501Z,22.85
2016-09-07T04:02:58.740Z,22.8
2016-09-07T04:03:58.377Z,22.87
2016-09-07T04:04:58.318Z,22.84
2016-09-07T04:05:58.262Z,22.83
2016-09-07T04:06:58.194Z,22.87
2016-09-07T04:07:58.138Z,22.84
2016-09-07T04:08:58.072Z,22.8
2016-09-07T04:09:58.023Z,22.8
2016-09-07T04:10:57.964Z,22.75
2016-09-07T04:11:57.896Z,22.81
2016-09-07T04:12:57.843Z,22.84
2016-09-07T04:13:58.089Z,22.83
2016-09-07T04:14:57.779Z,22.87
2016-09-07T04:15:57.667Z,22.84
2016-09-07T04:16:57.602Z,22.78
2016-09-07T04:17:57.536Z,22.83
2016-09-07T04:18:57.481Z,22.81
2016-09-07T04:19:57.417Z,22.76
2016-09-07T04:20:57.361Z,22.84
2016-09-07T04:21:57.311Z,22.83
2016-09-07T04:22:57.440Z,22.83
2016-09-07T04:23:57.181Z,22.81
2016-09-07T04:24:57.119Z,22.8
2016-09-07T04:25:57.373Z,22.78
2016-09-07T04:26:57.000Z,22.8
2016-09-07T04:27:56.939Z,22.81
2016-09-07T04:28:56.882Z,22.8
2016-09-07T04:29:56.819Z,22.85
2016-09-07T04:30:56.755Z,22.87
2016-09-07T04:31:56.707Z,22.84
2016-09-07T04:32:56.639Z,22.83
2016-09-07T04:33:56.577Z,22.8
2016-09-07T04:34:56.517Z,22.81
2016-09-07T04:35:56.764Z,22.85
2016-09-07T04:36:56.405Z,22.8
2016-09-07T04:37:56.343Z,22.83
2016-09-07T04:38:56.281Z,22.81
2016-09-07T04:39:56.226Z,22.83
2016-09-07T04:40:56.161Z,22.84
2016-09-07T04:41:56.102Z,22.83
2016-09-07T04:42:56.346Z,22.84
2016-09-07T04:43:55.988Z,22.85
2016-09-07T04:44:55.919Z,22.85
2016-09-07T04:45:55.861Z,22.84
2016-09-07T04:46:55.802Z,22.83
2016-09-07T04:47:56.048Z,22.81
2016-09-07T04:48:55.683Z,22.78
2016-09-07T04:49:55.621Z,22.83
2016-09-07T04:50:55.563Z,22.84
2016-09-07T04:51:55.502Z,22.81
2016-09-07T04:52:55.746Z,22.78
2016-09-07T04:53:55.593Z,22.8
2016-09-07T04:54:55.330Z,22.83
2016-09-07T04:55:55.264Z,22.85
2016-09-07T04:56:55.205Z,22.84
2016-09-07T04:57:55.493Z,22.84
2016-09-07T04:58:55.086Z,22.87
2016-09-07T04:59:55.026Z,22.8
2016-09-07T05:00:55.273Z,22.8
2016-09-07T05:01:54.905Z,22.84
2016-09-07T05:02:54.841Z,22.73
2016-09-07T05:03:54.782Z,22.78
2016-09-07T05:04:54.730Z,22.78
2016-09-07T05:05:54.662Z,22.8
2016-09-07T05:06:54.616Z,22.81
2016-09-07T05:07:55.232Z,22.81
2016-09-07T05:08:54.483Z,22.78
2016-09-07T05:09:54.429Z,22.83
2016-09-07T05:10:54.363Z,22.76
2016-09-07T05:11:54.327Z,22.75
2016-09-07T05:12:54.251Z,22.75
2016-09-07T05:13:57.832Z,22.76
2016-09-07T05:14:54.121Z,22.76
2016-09-07T05:15:54.067Z,22.87
2016-09-07T05:16:54.005Z,22.8
2016-09-07T05:17:53.947Z,22.78
2016-09-07T05:18:53.886Z,22.84
2016-09-07T05:19:53.825Z,22.76
2016-09-07T05:20:53.769Z,22.81
2016-09-07T05:21:53.704Z,22.8
2016-09-07T05:22:53.643Z,22.75
2016-09-07T05:23:53.582Z,22.84
2016-09-07T05:24:53.544Z,22.84
2016-09-07T05:25:53.463Z,22.76
2016-09-07T05:26:53.405Z,22.8
2016-09-07T05:27:53.352Z,22.8
2016-09-07T05:28:53.592Z,22.8
2016-09-07T05:29:53.232Z,22.76
2016-09-07T05:30:53.168Z,22.84
2016-09-07T05:31:53.118Z,22.83
2016-09-07T05:32:53.054Z,22.84
2016-09-07T05:33:52.992Z,22.72
2016-09-07T05:34:52.931Z,22.75
2016-09-07T05:35:52.867Z,22.72
2016-09-07T05:36:52.810Z,22.83
2016-09-07T05:37:52.747Z,22.75
2016-09-07T05:38:52.693Z,22.78
2016-09-07T05:39:52.632Z,22.78
2016-09-07T05:40:52.567Z,22.73
2016-09-07T05:41:52.853Z,22.69
2016-09-07T05:42:53.094Z,22.84
2016-09-07T05:43:52.694Z,22.84
2016-09-07T05:44:52.333Z,22.69
2016-09-07T05:45:52.566Z,22.78
2016-09-07T05:46:52.209Z,22.75
2016-09-07T05:47:52.149Z,22.8
2016-09-07T05:48:52.094Z,22.84
2016-09-07T05:49:52.036Z,22.81
2016-09-07T05:50:51.971Z,22.72
2016-09-07T05:51:51.913Z,22.8
2016-09-07T05:52:51.849Z,22.78
2016-09-07T05:53:51.786Z,22.81
2016-09-07T05:54:51.728Z,22.78
2016-09-07T05:55:51.668Z,22.75
2016-09-07T05:56:51.915Z,22.78
2016-09-07T05:57:51.551Z,22.81
2016-09-07T05:58:51.488Z,22.76
2016-09-07T05:59:51.430Z,22.75
2016-09-07T06:00:51.379Z,22.78
2016-09-07T06:01:51.311Z,22.84
2016-09-07T06:02:51.259Z,22.81
2016-09-07T06:03:52.391Z,22.73
2016-09-07T06:04:51.450Z,22.83
2016-09-07T06:05:51.075Z,22.8
2016-09-07T06:06:51.010Z,22.87
2016-09-07T06:07:50.950Z,22.81
2016-09-07T06:08:50.901Z,22.81
2016-09-07T06:09:50.830Z,22.84
2016-09-07T06:10:50.977Z,22.72
2016-09-07T06:11:50.714Z,22.8
2016-09-07T06:12:50.656Z,22.81
2016-09-07T06:13:50.590Z,22.78
2016-09-07T06:14:50.527Z,22.73
2016-09-07T06:15:50.790Z,22.8
2016-09-07T06:16:50.414Z,22.76
2016-09-07T06:17:50.552Z,22.72
2016-09-07T06:18:50.292Z,22.75
2016-09-07T06:19:50.243Z,22.81
2016-09-07T06:20:50.179Z,22.81
2016-09-07T06:21:50.111Z,22.83
2016-09-07T06:22:50.049Z,22.84
2016-09-07T06:23:49.986Z,22.83
2016-09-07T06:24:50.248Z,22.81
2016-09-07T06:25:50.187Z,22.84
2016-09-07T06:26:49.810Z,22.83
2016-09-07T06:27:50.073Z,22.85
2016-09-07T06:28:49.691Z,22.81
2016-09-07T06:29:49.632Z,22.84
2016-09-07T06:30:49.876Z,22.84
2016-09-07T06:31:49.517Z,22.83
2016-09-07T06:32:49.456Z,22.84
2016-09-07T06:33:49.393Z,22.8
2016-09-07T06:34:49.332Z,22.84
2016-09-07T06:35:49.585Z,22.8
2016-09-07T06:36:49.219Z,22.8
2016-09-07T06:37:49.455Z,22.81
2016-09-07T06:38:49.094Z,22.83
2016-09-07T06:39:49.032Z,22.81
2016-09-07T06:40:48.975Z,22.9
2016-09-07T06:41:48.910Z,22.91
2016-09-07T06:42:48.857Z,22.81
2016-09-07T06:43:49.324Z,22.91
2016-09-07T06:44:48.745Z,22.93
2016-09-07T06:45:49.286Z,22.96
2016-09-07T06:46:48.627Z,22.94
2016-09-07T06:47:48.588Z,22.83
2016-09-07T06:48:48.501Z,22.94
2016-09-07T06:49:48.434Z,22.76
2016-09-07T06:50:48.376Z,22.83
2016-09-07T06:51:48.315Z,22.88
2016-09-07T06:52:48.257Z,22.83
2016-09-07T06:53:48.193Z,22.84
2016-09-07T06:54:48.133Z,22.94
2016-09-07T06:55:48.084Z,22.76
2016-09-07T06:56:48.023Z,22.94
2016-09-07T06:57:47.956Z,22.93
2016-09-07T06:58:47.894Z,22.94
2016-09-07T06:59:47.838Z,22.88
2016-09-07T07:00:48.186Z,22.9
2016-09-07T07:01:47.795Z,22.91
2016-09-07T07:02:47.661Z,22.93
2016-09-07T07:03:47.600Z,22.9
2016-09-07T07:04:47.539Z,22.85
2016-09-07T07:05:47.485Z,22.91
2016-09-07T07:06:47.731Z,22.93
2016-09-07T07:07:47.364Z,22.94
2016-09-07T07:08:47.318Z,22.9
2016-09-07T07:09:47.240Z,23
2016-09-07T07:10:47.262Z,22.96
2016-09-07T07:11:47.524Z,22.9
2016-09-07T07:12:47.124Z,22.93
2016-09-07T07:13:47.375Z,22.91
2016-09-07T07:14:47.327Z,22.9
2016-09-07T07:15:46.895Z,22.93
2016-09-07T07:16:46.819Z,22.91
2016-09-07T07:17:46.756Z,22.88
2016-09-07T07:18:47.010Z,22.91
2016-09-07T07:19:46.638Z,22.98
2016-09-07T07:20:46.587Z,22.94
2016-09-07T07:21:46.832Z,22.9
2016-09-07T07:22:46.783Z,22.98
2016-09-07T07:23:46.423Z,22.87
2016-09-07T07:24:46.345Z,22.96
2016-09-07T07:25:46.601Z,22.93
2016-09-07T07:26:46.223Z,22.96
2016-09-07T07:27:46.187Z,22.93
2016-09-07T07:28:46.107Z,23
2016-09-07T07:29:46.059Z,22.94
2016-09-07T07:30:45.989Z,22.96
2016-09-07T07:31:45.926Z,22.96
2016-09-07T07:32:45.877Z,23.03
2016-09-07T07:33:45.808Z,22.99
2016-09-07T07:34:46.029Z,23.02
2016-09-07T07:35:46.005Z,23.06
2016-09-07T07:36:45.634Z,23.03
2016-09-07T07:37:45.578Z,23.03
2016-09-07T07:38:45.528Z,23.05
2016-09-07T07:39:45.493Z,23.06
2016-09-07T07:40:45.409Z,23.1
2016-09-07T07:41:45.324Z,23.18
2016-09-07T07:42:45.265Z,23.12
2016-09-07T07:43:45.221Z,23.13
2016-09-07T07:44:45.152Z,23.15
2016-09-07T07:45:45.102Z,23.17
2016-09-07T07:46:45.344Z,23.1
2016-09-07T07:47:44.982Z,23.13
2016-09-07T07:48:44.913Z,23.15
2016-09-07T07:49:45.177Z,23.2
2016-09-07T07:50:44.809Z,23.23
2016-09-07T07:51:45.053Z,23.18
2016-09-07T07:52:44.673Z,23.31
2016-09-07T07:53:44.612Z,23.23
2016-09-07T07:54:44.555Z,23.13
2016-09-07T07:55:44.493Z,23.21
2016-09-07T07:56:44.431Z,23.17
2016-09-07T07:57:44.697Z,23.27
2016-09-07T07:58:44.335Z,23.23
2016-09-07T07:59:44.258Z,23.27
2016-09-07T08:00:44.515Z,23.21
2016-09-07T08:01:44.436Z,23.24
2016-09-07T08:02:44.379Z,23.32
2016-09-07T08:03:44.017Z,23.23
2016-09-07T08:04:43.956Z,23.23
2016-09-07T08:05:44.097Z,23.31
2016-09-07T08:06:44.040Z,23.27
2016-09-07T08:07:43.782Z,23.36
2016-09-07T08:08:43.727Z,23.39
2016-09-07T08:09:43.963Z,23.34
2016-09-07T08:10:43.611Z,23.34
2016-09-07T08:11:43.549Z,23.28
2016-09-07T08:12:43.785Z,23.32
2016-09-07T08:13:43.413Z,23.24
2016-09-07T08:14:43.361Z,23.28
2016-09-07T08:15:43.301Z,23.37
2016-09-07T08:16:43.552Z,23.31
2016-09-07T08:17:43.825Z,23.37
2016-09-07T08:18:43.123Z,23.36
2016-09-07T08:19:43.062Z,23.37
2016-09-07T08:20:43.023Z,23.36
2016-09-07T08:21:43.559Z,23.44
2016-09-07T08:22:43.185Z,23.36
2016-09-07T08:23:43.141Z,23.36
2016-09-07T08:24:42.770Z,23.46
2016-09-07T08:25:42.723Z,23.44
2016-09-07T08:26:42.648Z,23.44
2016-09-07T08:27:42.585Z,23.37
2016-09-07T08:28:43.528Z,23.37
2016-09-07T08:29:42.471Z,23.31
2016-09-07T08:30:42.420Z,23.31
2016-09-07T08:31:42.666Z,23.43
2016-09-07T08:32:42.297Z,23.44
2016-09-07T08:33:42.537Z,23.41
2016-09-07T08:34:42.170Z,23.48
2016-09-07T08:35:42.418Z,23.46
2016-09-07T08:36:42.083Z,23.41
2016-09-07T08:37:42.007Z,23.54
2016-09-07T08:38:42.450Z,23.56
2016-09-07T08:39:41.882Z,23.56
2016-09-07T08:40:41.816Z,23.56
2016-09-07T08:41:41.786Z,23.58
2016-09-07T08:42:42.022Z,23.62
2016-09-07T08:43:42.163Z,23.55
2016-09-07T08:44:41.578Z,23.58
2016-09-07T08:45:42.041Z,23.62
2016-09-07T08:46:41.764Z,23.62
2016-09-07T08:47:41.725Z,23.62
2016-09-07T08:48:41.357Z,23.68
2016-09-07T08:49:41.654Z,23.65
2016-09-07T08:50:41.219Z,23.65
2016-09-07T08:51:41.471Z,23.66
2016-09-07T08:52:41.475Z,23.69
2016-09-07T08:53:41.058Z,23.71
2016-09-07T08:54:40.993Z,23.69
2016-09-07T08:55:40.966Z,23.74
2016-09-07T08:56:41.198Z,23.77
2016-09-07T08:57:40.849Z,23.78
2016-09-07T08:58:40.768Z,23.81
2016-09-07T08:59:40.991Z,23.86
2016-09-07T09:00:41.254Z,23.78
2016-09-07T09:01:40.937Z,23.81
2016-09-07T09:02:40.516Z,23.81
2016-09-07T09:03:40.467Z,23.83
2016-09-07T09:04:40.432Z,23.86
2016-09-07T09:05:40.330Z,23.84
2016-09-07T09:06:40.578Z,23.86
2016-09-07T09:07:40.575Z,23.92
2016-09-07T09:08:40.620Z,23.87
2016-09-07T09:09:40.101Z,23.84
2016-09-07T09:10:40.049Z,23.84
2016-09-07T09:11:39.993Z,23.8
2016-09-07T09:12:40.247Z,23.83
2016-09-07T09:13:39.862Z,23.91
2016-09-07T09:14:47.699Z,23.92
2016-09-07T09:15:54.638Z,23.98
2016-09-07T09:16:39.710Z,23.92
2016-09-07T09:17:39.641Z,23.86
2016-09-07T09:18:39.565Z,23.93
2016-09-07T09:19:39.524Z,23.88
2016-09-07T09:20:39.769Z,23.91
2016-09-07T09:21:39.416Z,23.86
2016-09-07T09:22:39.339Z,23.86
2016-09-07T09:23:39.582Z,23.92
2016-09-07T09:24:39.218Z,23.96
2016-09-07T09:25:39.171Z,23.95
2016-09-07T09:26:39.342Z,23.96
2016-09-07T09:27:39.054Z,24.06
2016-09-07T09:28:38.992Z,24.01
2016-09-07T09:29:38.922Z,24.02
2016-09-07T09:30:38.918Z,24.02
2016-09-07T09:31:38.800Z,23.99
2016-09-07T09:32:38.764Z,24.05
2016-09-07T09:33:38.707Z,24.02
2016-09-07T09:34:38.651Z,24.11
2016-09-07T09:35:38.572Z,24.11
2016-09-07T09:36:38.835Z,24.03
2016-09-07T09:37:38.455Z,24.14
2016-09-07T09:38:38.434Z,24.06
2016-09-07T09:39:38.343Z,24.11
2016-09-07T09:40:38.885Z,24.16
2016-09-07T09:41:38.218Z,24.1
2016-09-07T09:42:38.518Z,24.18
2016-09-07T09:43:38.091Z,24.16
2016-09-07T09:44:38.068Z,24.13
2016-09-07T09:45:37.993Z,24.16
2016-09-07T09:46:37.935Z,24.16
2016-09-07T09:47:37.862Z,24.13
2016-09-07T09:48:38.159Z,24.24
2016-09-07T09:49:37.742Z,24.26
2016-09-07T09:50:37.709Z,24.16
2016-09-07T09:51:37.634Z,24.2
2016-09-07T09:52:37.606Z,24.23
2016-09-07T09:53:37.509Z,24.23
2016-09-07T09:54:37.763Z,24.23
2016-09-07T09:55:37.716Z,24.28
2016-09-07T09:56:37.940Z,24.24
2016-09-07T09:57:37.281Z,24.28
2016-09-07T09:58:37.239Z,24.28
2016-09-07T09:59:37.154Z,24.33
2016-09-07T10:00:37.172Z,24.26
2016-09-07T10:01:37.035Z,24.32
2016-09-07T10:02:36.974Z,24.24
2016-09-07T10:03:36.939Z,24.2
2016-09-07T10:04:36.859Z,24.13
2016-09-07T10:05:37.320Z,24.13
2016-09-07T10:06:36.762Z,24.16
2016-09-07T10:07:36.685Z,24.11
2016-09-07T10:08:36.627Z,24.14
2016-09-07T10:09:36.569Z,24.11
2016-09-07T10:10:36.510Z,24.11
2016-09-07T10:11:36.449Z,24.14
2016-09-07T10:12:36.397Z,24.11
2016-09-07T10:13:36.960Z,24.17
2016-09-07T10:14:36.273Z,24.13
2016-09-07T10:15:36.531Z,24.11
2016-09-07T10:16:36.518Z,24.16
2016-09-07T10:17:36.411Z,24.13
2016-09-07T10:18:36.036Z,24.03
2016-09-07T10:19:35.989Z,24.14
2016-09-07T10:20:35.930Z,23.99
2016-09-07T10:21:36.173Z,24.1
2016-09-07T10:22:35.851Z,24.03
2016-09-07T10:23:35.762Z,24.03
2016-09-07T10:24:35.994Z,24.1
2016-09-07T10:25:36.241Z,24.1
2016-09-07T10:26:35.883Z,24.05
2016-09-07T10:27:35.520Z,24.01
2016-09-07T10:28:35.479Z,23.99
2016-09-07T10:29:35.417Z,23.98
2016-09-07T10:30:35.412Z,23.96
2016-09-07T10:31:35.297Z,24.05
2016-09-07T10:32:35.283Z,24.02
2016-09-07T10:33:35.166Z,24.06
2016-09-07T10:34:35.100Z,24.03
2016-09-07T10:35:35.044Z,24.08
2016-09-07T10:36:34.980Z,24.05
2016-09-07T10:37:34.926Z,23.98
2016-09-07T10:38:35.186Z,23.98
2016-09-07T10:39:35.128Z,23.99
2016-09-07T10:40:34.776Z,23.88
2016-09-07T10:41:34.687Z,23.99
2016-09-07T10:42:34.966Z,23.99
2016-09-07T10:43:34.862Z,23.99
2016-09-07T10:44:34.826Z,23.88
2016-09-07T10:45:34.760Z,23.91
2016-09-07T10:46:34.402Z,23.92
2016-09-07T10:47:34.362Z,23.92
2016-09-07T10:48:34.328Z,23.88
2016-09-07T10:49:34.218Z,23.88
2016-09-07T10:50:34.173Z,23.84
2016-09-07T10:51:34.116Z,23.87
2016-09-07T10:52:34.361Z,23.86
2016-09-07T10:53:33.980Z,23.92
2016-09-07T10:54:33.920Z,23.88
2016-09-07T10:55:33.871Z,23.96
2016-09-07T10:56:34.125Z,23.87
2016-09-07T10:57:33.746Z,23.92
2016-09-07T10:58:33.685Z,23.83
2016-09-07T10:59:33.940Z,23.91
2016-09-07T11:00:33.897Z,23.98
2016-09-07T11:01:33.514Z,23.92
2016-09-07T11:02:33.454Z,23.83
2016-09-07T11:03:33.391Z,23.92
2016-09-07T11:04:33.637Z,23.91
2016-09-07T11:05:33.287Z,23.92
2016-09-07T11:06:33.233Z,23.84
2016-09-07T11:07:33.162Z,23.84
2016-09-07T11:08:33.122Z,23.92
2016-09-07T11:09:33.089Z,23.98
2016-09-07T11:10:32.979Z,23.86
2016-09-07T11:11:32.974Z,23.92
2016-09-07T11:12:32.878Z,23.95
2016-09-07T11:13:32.817Z,23.87
2016-09-07T11:14:32.765Z,23.95
2016-09-07T11:15:33.205Z,23.81
2016-09-07T11:16:32.638Z,23.87
2016-09-07T11:17:32.567Z,23.93
2016-09-07T11:18:32.536Z,23.81
2016-09-07T11:19:32.449Z,23.91
2016-09-07T11:20:32.724Z,23.91
2016-09-07T11:21:32.675Z,23.81
2016-09-07T11:22:32.272Z,23.81
2016-09-07T11:23:32.839Z,23.92
2016-09-07T11:24:32.167Z,23.86
2016-09-07T11:25:32.482Z,23.92
2016-09-07T11:26:32.045Z,23.86
2016-09-07T11:27:32.327Z,23.84
2016-09-07T11:28:32.241Z,23.83
2016-09-07T11:29:31.870Z,23.98
2016-09-07T11:30:32.301Z,23.83
2016-09-07T11:31:31.782Z,23.87
2016-09-07T11:32:31.692Z,23.92
2016-09-07T11:33:31.956Z,23.86
2016-09-07T11:34:31.883Z,23.88
2016-09-07T11:35:31.847Z,23.86
2016-09-07T11:36:31.447Z,23.92
2016-09-07T11:37:31.447Z,23.92
2016-09-07T11:38:31.844Z,23.96
2016-09-07T11:39:31.273Z,23.96
2016-09-07T11:40:31.455Z,24.05
2016-09-07T11:41:31.373Z,23.98
2016-09-07T11:42:31.122Z,24.05
2016-09-07T11:43:31.037Z,23.95
2016-09-07T11:44:30.998Z,24.03
2016-09-07T11:45:30.940Z,24.06
2016-09-07T11:46:30.867Z,24.03
2016-09-07T11:47:31.006Z,23.98
2016-09-07T11:48:31.050Z,24.13
2016-09-07T11:49:30.695Z,24.02
2016-09-07T11:50:30.631Z,24.02
2016-09-07T11:51:30.579Z,24.1
2016-09-07T11:52:30.515Z,24.1
2016-09-07T11:53:30.761Z,24.03
2016-09-07T11:54:30.689Z,24.06
2016-09-07T11:55:30.854Z,24.1
2016-09-07T11:56:30.287Z,24.1
2016-09-07T11:57:30.211Z,24.11
2016-09-07T11:58:30.471Z,24.18
2016-09-07T11:59:30.404Z,24.14
2016-09-07T12:00:30.049Z,24.16
2016-09-07T12:01:30.300Z,24.16
2016-09-07T12:02:30.449Z,24.16
2016-09-07T12:03:30.173Z,24.13
2016-09-07T12:04:29.800Z,24.13
2016-09-07T12:05:29.768Z,24.2
2016-09-07T12:06:29.706Z,24.21
2016-09-07T12:07:30.293Z,24.21
2016-09-07T12:08:29.584Z,24.17
2016-09-07T12:09:29.827Z,24.21
2016-09-07T12:10:29.761Z,24.2
2016-09-07T12:11:29.698Z,24.26
2016-09-07T12:12:29.340Z,24.24
2016-09-07T12:13:29.609Z,24.24
2016-09-07T12:14:29.235Z,24.28
2016-09-07T12:15:29.389Z,24.2
2016-09-07T12:16:29.108Z,24.23
2016-09-07T12:17:29.268Z,24.24
2016-09-07T12:18:29.298Z,24.23
2016-09-07T12:19:28.938Z,24.23
2016-09-07T12:20:28.871Z,24.28
2016-09-07T12:21:29.115Z,24.24
2016-09-07T12:22:29.057Z,24.2
2016-09-07T12:23:28.692Z,24.26
2016-09-07T12:24:28.634Z,24.29
2016-09-07T12:25:28.573Z,24.28
2016-09-07T12:26:28.507Z,24.24
2016-09-07T12:27:28.767Z,24.32
2016-09-07T12:28:28.400Z,24.24
2016-09-07T12:29:28.638Z,24.24
2016-09-07T12:30:28.801Z,24.29
2016-09-07T12:31:28.242Z,24.26
2016-09-07T12:32:29.022Z,24.32
2016-09-07T12:33:28.176Z,24.24
2016-09-07T12:34:28.048Z,24.29
2016-09-07T12:35:28.609Z,24.24
2016-09-07T12:36:28.276Z,24.32
2016-09-07T12:37:27.878Z,24.39
2016-09-07T12:38:27.809Z,24.21
2016-09-07T12:39:28.061Z,24.29
2016-09-07T12:40:28.010Z,24.28
2016-09-07T12:41:27.648Z,24.24
2016-09-07T12:42:27.571Z,24.21
2016-09-07T12:43:27.722Z,24.26
2016-09-07T12:44:27.773Z,24.26
2016-09-07T12:45:27.711Z,24.24
2016-09-07T12:46:27.860Z,24.14
2016-09-07T12:47:27.613Z,24.18
2016-09-07T12:48:27.532Z,24.11
2016-09-07T12:49:27.479Z,24.16
2016-09-07T12:50:27.231Z,24.13
2016-09-07T12:51:27.061Z,24.17
2016-09-07T12:52:27.005Z,24.16
2016-09-07T12:53:27.463Z,24.18
2016-09-07T12:54:27.485Z,24.13
2016-09-07T12:55:27.132Z,24.13